Accueil
METAR-TAF:

METAR-TAF

Aéroports :

Base aérienne de Kleine-Brogel

Peer, Belgique

latitude: 51-10N, longitude: 005-28E, altitude: 55 m

Observation

Le bulletin a été fait il y a 16 minutes, à 11:25 UTC
Vent 4 kt de est/nord-est
Température 5°C
Humidité 81%
Pression 1016 hPa
Visibilité 10 km ou plus
Nuages fragmentés à une hauteur de 10000 ft

METAR: EBBL 211125Z 06004KT 9999 BKN100 05/02 Q1016 BLU BLU

Heure: 12:41 (11:41 UTC)

Prévision

Le bulletin a été fait il y a 3 heures et 0 minutes, à 08:41 UTC
Prévision valable du 21 à 10 UTC au 21 à 19 UTC
Vent 5 kt de est/nord-est
Visibilité 10 km ou plus
Nuages épars à une hauteur de 2500 ft
Nuages épars à une hauteur de 5000 ft
Evoluant progressivement
du 21 à 13 UTC au 21 à 15 UTC
Nuages épars à une hauteur de 8000 ft

TAF: EBBL 210841Z 2110/2119 06005KT 9999 SCT025 SCT050 BECMG 2113/2115 SCT080

Observations et prévisions météorologiques de plus de 4000 aéroports (messages METAR et TAF).

Les stations disponibles sont représentées par des disques jaunes et rouges sur la carte.

Passer la souris dessus pour voir le nom de la station.

Cliquer dessus pour voir les observations et prévisions météorologiques.

Pour changer de carte: cliquez sur les boutons verts avec une croix noire pour zoomer, sur le bouton vert avec un tiret pour effectuer un zoom arrière, ou sur les flèches vertes pour les cartes adjacentes.


METAR-TAF: